Pleasant Hill, Missouri
Current Conditions -  °F | °C
As of 5:53 AM on Thursday 27 Nov 2014 (Local Time) from KLXT Reporting Station
Overcast Overcast  
Wind Chill: 17°   Ceiling: 1400
Heat Index: 26°   Visibility: 10mi
Dew Point: 20°   Wind: 9mph
Humidity: 78%   Direction: 10°N
Pressure: 30.48"   Gusts: NA
Location:  38.79°N, 94.27°W
Report Text: KLXT 271153Z AUTO 01008KT 10SM OVC014 M03/M07 A3048 RMK AO2 SLP332 T10331067 11022 21033 51005 TSNO
Loading
Personal Weather Stations






























Interactive Weather Map New forecast layout! Learn more

10-Day Weather Forecast

Advertisements
Track Severe Weather on mobile